Time;durP1;ratioP1;P1;durP2;ratioP2;P2;SDS_P1;SDS_P2;PMS_P1;PMS_P2;Temp;Humidity;BMP_temperature;BMP_pressure;BME280_temperature;BME280_humidity;BME280_pressure;Samples;Min_cycle;Max_cycle;Signal;HPM_P1;HPM_P2
2021/08/19 00:01:55;;;;;;;2.50;1.35;;;23.20;51.30;;;;;;6349019;27;20047;-74
2021/08/19 00:04:56;;;;;;;2.80;1.48;;;23.20;51.40;;;;;;6323787;28;20058;-74
2021/08/19 00:07:56;;;;;;;2.85;1.55;;;23.20;51.40;;;;;;6323471;28;20048;-74
2021/08/19 00:10:58;;;;;;;2.85;1.45;;;23.20;51.50;;;;;;6306602;28;20111;-74
2021/08/19 00:13:59;;;;;;;4.22;1.40;;;23.20;51.50;;;;;;6323408;28;20032;-74
2021/08/19 00:17:01;;;;;;;1.77;1.23;;;23.20;51.60;;;;;;6340242;28;20036;-74
2021/08/19 00:20:03;;;;;;;3.03;1.33;;;23.10;51.70;;;;;;6340328;28;20055;-74
2021/08/19 00:23:04;;;;;;;4.15;1.80;;;23.10;51.80;;;;;;6324247;28;20425;-74
2021/08/19 00:26:06;;;;;;;5.28;1.45;;;23.10;51.80;;;;;;6339902;28;20048;-74
2021/08/19 00:29:07;;;;;;;2.83;1.33;;;23.10;52.00;;;;;;6324287;28;20045;-74
2021/08/19 00:32:08;;;;;;;2.83;1.50;;;23.10;52.10;;;;;;6326205;28;20035;-74
2021/08/19 00:35:09;;;;;;;2.42;1.58;;;23.00;52.10;;;;;;6349504;27;20080;-74
2021/08/19 00:38:10;;;;;;;3.60;1.58;;;23.00;52.30;;;;;;6348381;28;20032;-73
2021/08/19 00:41:12;;;;;;;3.13;1.63;;;23.00;52.30;;;;;;6349377;27;20032;-74
2021/08/19 00:44:13;;;;;;;3.90;1.88;;;23.00;52.30;;;;;;6349532;27;20034;-74
2021/08/19 00:47:14;;;;;;;1.98;1.58;;;23.00;52.30;;;;;;6349447;27;20047;-73
2021/08/19 00:50:15;;;;;;;6.15;2.00;;;23.00;52.30;;;;;;6350203;27;20370;-74
2021/08/19 00:53:18;;;;;;;2.97;1.67;;;23.00;52.30;;;;;;6331459;28;20050;-74
2021/08/19 00:56:19;;;;;;;5.25;1.70;;;23.00;52.30;;;;;;6348070;28;20055;-74
2021/08/19 00:59:23;;;;;;;2.28;1.60;;;23.00;52.40;;;;;;6359009;28;20039;-73
2021/08/19 01:02:25;;;;;;;4.82;1.60;;;23.10;52.30;;;;;;6371559;28;20099;-74
2021/08/19 01:05:29;;;;;;;3.03;1.77;;;23.00;52.20;;;;;;6354381;28;20039;-76
2021/08/19 01:08:30;;;;;;;2.40;1.73;;;23.00;52.30;;;;;;6369948;28;20019;-74
2021/08/19 01:11:37;;;;;;;2.55;1.40;;;23.00;52.40;;;;;;6364508;27;20039;-74
2021/08/19 01:14:42;;;;;;;3.20;1.63;;;23.00;52.40;;;;;;6348256;27;20032;-73
2021/08/19 01:17:55;;;;;;;2.40;1.25;;;23.00;52.40;;;;;;6347790;27;20106;-74
2021/08/19 01:20:56;;;;;;;5.75;1.33;;;23.00;52.40;;;;;;6337705;28;20119;-74
2021/08/19 01:23:58;;;;;;;4.35;2.22;;;23.00;52.30;;;;;;6322775;28;20375;-73
2021/08/19 01:27:00;;;;;;;2.92;1.77;;;23.00;52.30;;;;;;6322130;28;20381;-74
2021/08/19 01:30:01;;;;;;;7.30;1.90;;;23.00;52.30;;;;;;6339846;28;20048;-74
2021/08/19 01:33:02;;;;;;;3.00;1.83;;;23.00;52.40;;;;;;6332151;27;20036;-74
2021/08/19 01:36:03;;;;;;;4.30;1.88;;;23.00;52.50;;;;;;6348690;27;20043;-74
2021/08/19 01:39:04;;;;;;;4.63;1.73;;;23.00;52.50;;;;;;6348915;27;20114;-74
2021/08/19 01:42:06;;;;;;;3.60;1.73;;;23.00;52.60;;;;;;6348875;27;20454;-74
2021/08/19 01:45:07;;;;;;;2.00;1.50;;;23.00;52.70;;;;;;6352146;27;20032;-74
2021/08/19 01:48:08;;;;;;;4.32;1.83;;;23.00;52.80;;;;;;6353388;27;20055;-74
2021/08/19 01:51:19;;;;;;;3.10;1.70;;;22.90;52.80;;;;;;6335889;27;20039;-74
2021/08/19 01:54:23;;;;;;;3.72;1.88;;;22.90;52.90;;;;;;6352132;27;20028;-74
2021/08/19 01:57:24;;;;;;;1.95;1.27;;;22.90;53.00;;;;;;6353084;27;20043;-74
2021/08/19 02:00:25;;;;;;;2.67;1.73;;;22.90;53.00;;;;;;6351882;27;20028;-74
2021/08/19 02:03:26;;;;;;;1.83;1.50;;;22.90;53.00;;;;;;6351261;27;20093;-74
2021/08/19 02:06:28;;;;;;;2.53;1.50;;;22.90;53.00;;;;;;6351824;27;20467;-74
2021/08/19 02:09:30;;;;;;;2.17;1.52;;;22.90;53.00;;;;;;6351679;27;20039;-74
2021/08/19 02:12:31;;;;;;;3.00;1.80;;;23.00;53.00;;;;;;6351506;27;20038;-74
2021/08/19 02:15:32;;;;;;;4.00;1.90;;;23.00;53.00;;;;;;6352572;27;20027;-74
2021/08/19 02:18:33;;;;;;;5.10;1.48;;;23.00;53.00;;;;;;6352418;27;20028;-74
2021/08/19 02:21:34;;;;;;;2.83;1.40;;;23.00;53.00;;;;;;6352080;27;20129;-73
2021/08/19 02:24:35;;;;;;;5.85;1.90;;;23.00;53.00;;;;;;6351557;27;20442;-73
2021/08/19 02:27:36;;;;;;;3.05;2.08;;;23.00;53.00;;;;;;6351103;27;20116;-73
2021/08/19 02:30:37;;;;;;;5.38;2.22;;;23.00;53.10;;;;;;6350928;27;20047;-74
2021/08/19 02:33:38;;;;;;;4.13;1.95;;;22.90;53.10;;;;;;6349555;27;20020;-74
2021/08/19 02:36:39;;;;;;;5.45;2.10;;;23.00;53.20;;;;;;6351997;27;20039;-73
2021/08/19 02:39:40;;;;;;;4.10;1.92;;;22.90;53.30;;;;;;6350964;27;20096;-73
2021/08/19 02:42:41;;;;;;;4.30;1.95;;;22.90;53.30;;;;;;6351806;27;20394;-74
2021/08/19 02:45:43;;;;;;;2.30;1.70;;;22.90;53.90;;;;;;6350693;27;20043;-74
2021/08/19 02:48:44;;;;;;;3.33;1.73;;;22.80;53.60;;;;;;6351546;27;20054;-73
2021/08/19 02:51:45;;;;;;;2.70;2.00;;;23.00;53.50;;;;;;6350815;27;20032;-74
2021/08/19 02:54:46;;;;;;;3.47;1.75;;;22.80;53.50;;;;;;6350042;27;20055;-74
2021/08/19 02:57:47;;;;;;;4.30;1.80;;;22.80;53.60;;;;;;6351521;27;20043;-74
2021/08/19 03:00:48;;;;;;;4.63;1.98;;;22.90;53.70;;;;;;6352940;27;20174;-74
2021/08/19 03:03:49;;;;;;;4.20;2.08;;;22.90;53.70;;;;;;6348978;27;20043;-74
2021/08/19 03:06:50;;;;;;;4.20;1.83;;;22.80;53.60;;;;;;6350060;27;20042;-74
2021/08/19 03:09:51;;;;;;;5.90;2.10;;;22.80;53.70;;;;;;6351185;27;20035;-74
2021/08/19 03:12:52;;;;;;;2.08;1.55;;;22.80;53.70;;;;;;6350002;27;20353;-73
2021/08/19 03:15:54;;;;;;;4.38;1.73;;;22.80;53.70;;;;;;6350349;27;20035;-74
2021/08/19 03:18:55;;;;;;;3.60;1.90;;;22.80;53.70;;;;;;6349769;27;20031;-74
2021/08/19 03:21:56;;;;;;;4.22;2.20;;;22.80;53.70;;;;;;6349700;27;20426;-74
2021/08/19 03:24:57;;;;;;;4.90;1.80;;;22.80;53.70;;;;;;6349486;27;20039;-74
2021/08/19 03:28:02;;;;;;;4.03;1.63;;;22.80;53.70;;;;;;6349183;27;20035;-74
2021/08/19 03:31:03;;;;;;;3.13;1.80;;;22.90;53.70;;;;;;6349643;27;20100;-74
2021/08/19 03:34:04;;;;;;;2.97;1.85;;;22.90;53.60;;;;;;6330931;27;20123;-74
2021/08/19 03:37:07;;;;;;;5.20;1.95;;;22.90;53.60;;;;;;6325262;28;20041;-74
2021/08/19 03:40:09;;;;;;;4.38;1.80;;;22.90;53.60;;;;;;6307157;28;20051;-74
2021/08/19 03:43:10;;;;;;;3.03;1.58;;;22.90;53.60;;;;;;6325178;28;20107;-74
2021/08/19 03:46:13;;;;;;;3.25;1.98;;;22.80;53.70;;;;;;6324126;28;20054;-74
2021/08/19 03:49:14;;;;;;;3.92;2.08;;;22.80;53.70;;;;;;6324777;28;20054;-74
2021/08/19 03:52:15;;;;;;;5.00;2.28;;;22.90;53.70;;;;;;6325044;28;20039;-74
2021/08/19 03:55:17;;;;;;;4.43;2.42;;;22.90;53.70;;;;;;6307160;28;20368;-74
2021/08/19 03:58:18;;;;;;;3.55;1.88;;;22.90;53.60;;;;;;6323564;28;20452;-74
2021/08/19 04:01:19;;;;;;;3.90;2.03;;;22.90;53.60;;;;;;6323473;28;20032;-74
2021/08/19 04:04:20;;;;;;;4.03;2.00;;;22.90;53.60;;;;;;6327394;28;20077;-74
2021/08/19 04:07:21;;;;;;;5.78;1.80;;;22.90;53.70;;;;;;6348888;27;20039;-74
2021/08/19 04:10:22;;;;;;;3.55;2.13;;;22.90;53.70;;;;;;6349005;28;20031;-74
2021/08/19 04:13:24;;;;;;;6.30;2.47;;;22.90;53.70;;;;;;6331662;28;20101;-74
2021/08/19 04:16:25;;;;;;;2.80;1.75;;;22.90;53.70;;;;;;6348746;28;20042;-74
2021/08/19 04:19:26;;;;;;;6.28;1.92;;;22.80;53.70;;;;;;6349478;27;20046;-73
2021/08/19 04:22:27;;;;;;;2.85;2.10;;;22.90;53.80;;;;;;6349537;27;20031;-74
2021/08/19 04:25:28;;;;;;;4.03;1.85;;;22.80;53.80;;;;;;6349508;27;20063;-74
2021/08/19 04:28:29;;;;;;;3.33;1.80;;;22.80;53.80;;;;;;6348211;28;20177;-74
2021/08/19 04:31:30;;;;;;;7.95;1.70;;;22.80;53.90;;;;;;6348179;28;20107;-74
2021/08/19 04:34:31;;;;;;;2.65;1.70;;;22.80;53.90;;;;;;6347225;28;20027;-73
2021/08/19 04:37:34;;;;;;;4.90;2.15;;;22.80;53.80;;;;;;6349436;27;20027;-74
2021/08/19 04:40:36;;;;;;;2.80;1.63;;;22.80;53.90;;;;;;6330467;28;20100;-73
2021/08/19 04:43:37;;;;;;;3.53;2.13;;;22.80;53.90;;;;;;6348098;27;20373;-73
2021/08/19 04:46:38;;;;;;;3.88;2.00;;;22.70;53.90;;;;;;6331135;27;20027;-73
2021/08/19 04:49:39;;;;;;;5.05;1.90;;;22.70;53.90;;;;;;6348138;28;20051;-73
2021/08/19 04:52:40;;;;;;;2.83;1.88;;;22.70;54.00;;;;;;6349311;27;20036;-73
2021/08/19 04:55:41;;;;;;;4.70;2.22;;;22.70;54.00;;;;;;6330921;28;20044;-73
2021/08/19 04:58:42;;;;;;;2.58;1.70;;;22.70;54.00;;;;;;6348068;28;20047;-73
2021/08/19 05:01:43;;;;;;;6.38;1.83;;;22.70;54.00;;;;;;6348929;27;20036;-73
2021/08/19 05:04:44;;;;;;;3.95;2.08;;;22.70;54.10;;;;;;6360956;28;20054;-73
2021/08/19 05:07:46;;;;;;;4.60;2.00;;;22.70;54.00;;;;;;6373376;28;20368;-73
2021/08/19 05:10:47;;;;;;;3.55;2.08;;;22.70;54.00;;;;;;6355922;28;20042;-73
2021/08/19 05:13:48;;;;;;;4.82;2.20;;;22.70;54.00;;;;;;6356124;28;20383;-74
2021/08/19 05:16:49;;;;;;;3.72;1.95;;;22.70;53.90;;;;;;6373974;27;20114;-73
2021/08/19 05:19:50;;;;;;;3.33;1.83;;;22.80;54.00;;;;;;6361172;27;20091;-75
2021/08/19 05:22:52;;;;;;;2.58;1.58;;;22.80;53.80;;;;;;6378342;27;20090;-74
2021/08/19 05:25:53;;;;;;;4.82;1.70;;;22.80;53.70;;;;;;6379661;27;20116;-75
2021/08/19 05:28:54;;;;;;;3.63;1.98;;;22.90;53.70;;;;;;6384358;27;20047;-74
2021/08/19 05:31:55;;;;;;;2.80;1.52;;;22.80;53.60;;;;;;6399891;27;20413;-75
2021/08/19 05:34:56;;;;;;;3.50;1.88;;;22.90;53.60;;;;;;6350069;28;20044;-74
2021/08/19 05:37:57;;;;;;;3.72;2.13;;;22.80;53.60;;;;;;6331558;28;20043;-74
2021/08/19 05:40:58;;;;;;;3.95;1.95;;;22.80;53.50;;;;;;6328636;28;20036;-74
2021/08/19 05:43:59;;;;;;;4.18;1.73;;;22.90;53.60;;;;;;6329208;28;20427;-73
2021/08/19 05:47:00;;;;;;;4.10;1.83;;;22.90;53.50;;;;;;6327759;28;20085;-73
2021/08/19 05:50:03;;;;;;;8.95;1.92;;;22.90;53.40;;;;;;6326955;28;20044;-74
2021/08/19 05:53:13;;;;;;;4.05;1.90;;;22.90;53.40;;;;;;6326936;28;20097;-73
2021/08/19 05:56:14;;;;;;;8.23;2.25;;;22.90;53.40;;;;;;6325919;28;20040;-73
2021/08/19 05:59:15;;;;;;;4.10;1.83;;;22.90;53.30;;;;;;6327362;28;20503;-73
2021/08/19 06:02:18;;;;;;;4.72;1.73;;;22.90;53.30;;;;;;6313388;27;20055;-74
2021/08/19 06:05:19;;;;;;;4.63;1.90;;;22.90;53.20;;;;;;6351787;27;20040;-74
2021/08/19 06:08:20;;;;;;;5.30;2.17;;;22.90;53.20;;;;;;6351762;27;20035;-74
2021/08/19 06:11:21;;;;;;;4.20;1.90;;;23.00;53.10;;;;;;6351428;27;20092;-74
2021/08/19 06:14:22;;;;;;;2.58;1.70;;;23.00;53.10;;;;;;6351219;27;20031;-74
2021/08/19 06:17:24;;;;;;;2.17;1.50;;;23.00;53.10;;;;;;6351153;27;20467;-73
2021/08/19 06:20:25;;;;;;;4.32;2.25;;;22.90;53.10;;;;;;6352076;27;20524;-74
2021/08/19 06:23:26;;;;;;;5.75;2.15;;;22.90;53.10;;;;;;6350976;27;20040;-74
2021/08/19 06:26:27;;;;;;;4.07;1.63;;;23.00;53.10;;;;;;6333993;27;20036;-73
2021/08/19 06:29:28;;;;;;;3.17;1.98;;;23.00;53.10;;;;;;6350048;27;20380;-74
2021/08/19 06:32:29;;;;;;;2.63;1.60;;;23.00;53.10;;;;;;6349987;27;20537;-74
2021/08/19 06:35:30;;;;;;;3.97;2.22;;;23.10;53.10;;;;;;6333648;27;20089;-74
2021/08/19 06:38:31;;;;;;;4.68;1.95;;;23.10;53.00;;;;;;6351642;27;20040;-74
2021/08/19 06:41:32;;;;;;;3.33;1.83;;;23.10;53.00;;;;;;6350409;27;20050;-74
2021/08/19 06:44:33;;;;;;;4.75;2.00;;;23.10;53.00;;;;;;6350532;27;20036;-74
2021/08/19 06:47:35;;;;;;;2.05;1.35;;;23.10;52.90;;;;;;6351803;27;20027;-74
2021/08/19 06:50:36;;;;;;;3.55;1.77;;;23.20;52.90;;;;;;6333367;27;20050;-74
2021/08/19 06:53:37;;;;;;;3.80;1.92;;;23.20;52.80;;;;;;6350297;27;20040;-73
2021/08/19 06:56:38;;;;;;;4.28;2.00;;;23.20;52.70;;;;;;6350296;27;20027;-74
2021/08/19 06:59:39;;;;;;;7.07;2.15;;;23.30;52.70;;;;;;6350612;27;20479;-74
2021/08/19 07:02:40;;;;;;;8.07;2.03;;;23.30;52.70;;;;;;6349310;27;20116;-74
2021/08/19 07:05:45;;;;;;;3.38;2.05;;;23.30;52.70;;;;;;6351026;27;20106;-74
2021/08/19 07:08:45;;;;;;;4.90;1.98;;;23.40;52.60;;;;;;6352132;27;20430;-74
2021/08/19 07:11:47;;;;;;;2.60;1.67;;;23.40;52.50;;;;;;6351213;27;20106;-74
2021/08/19 07:14:48;;;;;;;6.43;2.03;;;23.40;52.50;;;;;;6332975;28;20039;-74
2021/08/19 07:17:49;;;;;;;3.78;1.75;;;23.40;52.50;;;;;;6349664;28;20370;-73
2021/08/19 07:20:50;;;;;;;5.53;2.08;;;23.40;52.40;;;;;;6350683;27;20027;-74
2021/08/19 07:23:51;;;;;;;3.83;1.80;;;23.50;52.40;;;;;;6332441;28;20418;-74
2021/08/19 07:26:52;;;;;;;2.92;1.77;;;23.50;52.40;;;;;;6350088;27;20035;-75
2021/08/19 07:29:53;;;;;;;4.25;2.10;;;23.50;52.30;;;;;;6348953;28;20094;-73
2021/08/19 07:32:54;;;;;;;3.00;1.60;;;23.60;52.30;;;;;;6347602;27;20039;-73
2021/08/19 07:35:55;;;;;;;6.38;1.60;;;23.60;52.00;;;;;;6350065;27;20088;-75
2021/08/19 07:39:02;;;;;;;3.83;1.88;;;23.70;51.90;;;;;;6350407;27;20123;-75
2021/08/19 07:42:03;;;;;;;3.03;1.65;;;23.80;51.70;;;;;;6349029;27;20116;-73
2021/08/19 07:45:05;;;;;;;4.38;1.80;;;23.80;51.60;;;;;;6332018;27;20035;-73
2021/08/19 07:48:10;;;;;;;2.92;1.83;;;23.90;51.50;;;;;;6348605;27;20039;-73
2021/08/19 07:51:11;;;;;;;4.32;1.92;;;23.90;51.30;;;;;;6348350;27;20115;-73
2021/08/19 07:54:12;;;;;;;3.70;2.03;;;24.00;51.30;;;;;;6349392;27;20061;-74
2021/08/19 07:57:13;;;;;;;3.28;1.92;;;24.00;51.20;;;;;;6330644;27;20423;-74
2021/08/19 08:00:38;;;;;;;1.67;1.40;;;24.10;51.10;;;;;;6331356;27;20180;-74
2021/08/19 08:03:39;;;;;;;7.68;1.90;;;24.10;51.00;;;;;;6329649;27;20035;-74
2021/08/19 08:06:41;;;;;;;6.57;1.95;;;24.30;50.80;;;;;;6348240;27;20036;-74
2021/08/19 08:09:42;;;;;;;3.95;1.90;;;24.30;50.70;;;;;;6331314;27;20043;-73
2021/08/19 08:12:44;;;;;;;4.03;1.98;;;24.40;50.70;;;;;;6348216;27;20039;-74
2021/08/19 08:15:45;;;;;;;7.30;1.83;;;24.40;50.50;;;;;;6348159;27;20032;-74
2021/08/19 08:18:46;;;;;;;2.70;1.77;;;24.50;50.40;;;;;;6348110;27;20122;-74
2021/08/19 08:21:48;;;;;;;2.70;2.00;;;24.50;50.30;;;;;;6347966;27;20027;-73
2021/08/19 08:24:49;;;;;;;5.00;2.53;;;24.50;50.20;;;;;;6330976;27;20031;-73
2021/08/19 08:28:14;;;;;;;3.55;1.90;;;24.50;50.20;;;;;;6348671;27;20135;-73
2021/08/19 08:31:16;;;;;;;2.97;1.73;;;24.60;50.00;;;;;;6347844;27;20032;-73
2021/08/19 08:34:17;;;;;;;3.60;1.45;;;24.70;49.80;;;;;;6330602;27;20043;-73
2021/08/19 08:37:18;;;;;;;5.60;2.15;;;24.80;49.60;;;;;;6347844;27;20020;-73
2021/08/19 08:40:19;;;;;;;4.63;1.80;;;24.90;49.40;;;;;;6347580;27;20080;-73
2021/08/19 08:43:21;;;;;;;6.43;2.08;;;25.00;49.20;;;;;;6330918;27;20047;-73
2021/08/19 08:46:24;;;;;;;28.40;2.30;;;25.20;48.90;;;;;;6347728;27;20377;-73
2021/08/19 08:49:25;;;;;;;6.70;2.20;;;25.30;48.80;;;;;;6348791;27;20027;-73
2021/08/19 08:52:28;;;;;;;5.93;2.20;;;25.30;48.50;;;;;;6347491;27;20476;-73
2021/08/19 08:55:29;;;;;;;4.00;1.77;;;25.30;48.50;;;;;;6347730;27;20102;-73
2021/08/19 08:58:30;;;;;;;4.40;2.13;;;25.30;48.30;;;;;;6346574;27;20032;-74
2021/08/19 09:01:31;;;;;;;6.45;2.30;;;25.30;48.10;;;;;;6347876;27;20024;-74
2021/08/19 09:04:32;;;;;;;4.70;2.08;;;25.40;48.00;;;;;;6330797;27;20027;-74
2021/08/19 09:07:33;;;;;;;4.93;2.10;;;25.50;48.00;;;;;;6349866;28;20039;-74
2021/08/19 09:10:34;;;;;;;3.47;1.83;;;25.50;47.80;;;;;;6348170;28;20425;-74
2021/08/19 09:13:35;;;;;;;3.85;2.00;;;25.60;47.70;;;;;;6347129;28;20036;-73
2021/08/19 09:16:39;;;;;;;10.23;2.13;;;25.60;47.50;;;;;;6347321;28;20372;-73
2021/08/19 09:19:40;;;;;;;5.82;1.85;;;25.70;47.50;;;;;;6348442;28;20066;-73
2021/08/19 09:23:07;;;;;;;5.50;2.40;;;25.80;47.40;;;;;;6348250;28;20053;-73
2021/08/19 09:26:09;;;;;;;4.50;2.17;;;26.00;47.80;;;;;;6321938;28;20066;-73
2021/08/19 09:29:30;;;;;;;3.90;2.08;;;26.20;46.70;;;;;;6345921;28;20048;-74
2021/08/19 09:32:31;;;;;;;4.75;2.00;;;26.20;46.40;;;;;;6342579;27;20027;-74
2021/08/19 09:35:34;;;;;;;3.28;1.90;;;26.30;46.20;;;;;;6345144;27;20038;-74
2021/08/19 09:38:41;;;;;;;4.30;2.08;;;26.50;46.00;;;;;;6344461;27;20104;-73
2021/08/19 09:41:55;;;;;;;9.98;2.40;;;26.60;45.80;;;;;;6344700;27;20051;-74
2021/08/19 09:44:56;;;;;;;3.28;2.08;;;26.70;45.60;;;;;;6344860;27;20168;-74
2021/08/19 09:48:12;;;;;;;3.50;2.10;;;26.90;45.20;;;;;;6343650;27;20039;-74
2021/08/19 09:51:19;;;;;;;3.90;2.00;;;27.00;45.10;;;;;;6345190;27;20101;-74
2021/08/19 09:54:32;;;;;;;3.13;2.35;;;27.20;44.80;;;;;;6337853;27;20044;-73
2021/08/19 09:57:37;;;;;;;3.83;2.17;;;27.20;44.40;;;;;;6356101;27;20103;-74
2021/08/19 10:00:42;;;;;;;3.33;1.98;;;27.40;44.90;;;;;;6360857;27;20036;-74
2021/08/19 10:03:44;;;;;;;5.72;2.30;;;27.50;44.00;;;;;;6351466;27;20107;-74
2021/08/19 10:06:45;;;;;;;4.93;2.22;;;27.60;43.70;;;;;;6354059;27;20039;-74
2021/08/19 10:09:46;;;;;;;4.00;2.17;;;27.70;43.40;;;;;;6333053;27;20059;-74
2021/08/19 10:12:48;;;;;;;3.35;2.20;;;27.60;43.30;;;;;;6349207;27;20043;-73
2021/08/19 10:15:51;;;;;;;4.93;2.47;;;27.70;43.30;;;;;;6349994;27;20040;-74
2021/08/19 10:18:53;;;;;;;3.45;2.08;;;27.70;43.20;;;;;;6348495;27;20432;-74
2021/08/19 10:22:03;;;;;;;3.30;2.50;;;27.70;43.10;;;;;;6346933;27;20143;-73
2021/08/19 10:25:05;;;;;;;6.35;2.40;;;27.70;43.20;;;;;;6347450;27;20493;-73
2021/08/19 10:28:17;;;;;;;6.50;2.70;;;27.80;43.10;;;;;;6347150;27;20058;-73
2021/08/19 10:31:36;;;;;;;6.40;2.58;;;27.70;43.00;;;;;;6348051;27;20381;-73
2021/08/19 10:34:54;;;;;;;7.50;2.20;;;27.70;43.30;;;;;;6347994;27;20092;-73
2021/08/19 10:37:55;;;;;;;6.20;2.47;;;27.70;43.50;;;;;;6347833;27;20027;-73
2021/08/19 10:40:56;;;;;;;4.20;2.22;;;27.70;43.20;;;;;;6348224;27;20043;-74
2021/08/19 10:44:08;;;;;;;3.28;2.00;;;27.70;43.30;;;;;;6348095;27;20114;-73
2021/08/19 10:47:29;;;;;;;3.55;2.38;;;27.60;43.10;;;;;;6330666;27;20051;-74
2021/08/19 10:50:42;;;;;;;3.40;2.33;;;27.50;43.30;;;;;;6346159;27;20059;-73
2021/08/19 10:53:43;;;;;;;6.45;2.47;;;27.40;43.30;;;;;;6345814;27;20053;-73
2021/08/19 10:56:45;;;;;;;3.42;2.47;;;27.70;43.00;;;;;;6341638;27;20480;-73
2021/08/19 10:59:58;;;;;;;2.88;2.17;;;28.20;42.30;;;;;;6328011;27;20031;-73
2021/08/19 11:02:59;;;;;;;3.90;2.20;;;28.80;41.30;;;;;;6343371;27;20123;-75
2021/08/19 11:06:00;;;;;;;8.05;2.78;;;29.20;40.40;;;;;;6345052;27;20045;-75
2021/08/19 11:09:11;;;;;;;4.35;2.58;;;29.70;39.80;;;;;;6345830;27;20043;-73
2021/08/19 11:12:12;;;;;;;2.70;2.22;;;30.00;39.20;;;;;;6330730;27;20036;-74
2021/08/19 11:15:14;;;;;;;6.47;2.88;;;30.30;38.60;;;;;;6345416;27;20031;-73
2021/08/19 11:18:35;;;;;;;10.98;2.78;;;30.60;38.20;;;;;;6345762;28;20055;-73
2021/08/19 11:21:37;;;;;;;3.88;3.03;;;30.80;37.90;;;;;;6344490;28;20035;-73
2021/08/19 11:24:39;;;;;;;3.70;2.72;;;31.10;37.40;;;;;;6345829;28;20439;-74
2021/08/19 11:27:41;;;;;;;4.18;2.78;;;31.30;37.10;;;;;;6345587;27;20520;-76
2021/08/19 11:30:47;;;;;;;11.23;3.00;;;31.50;36.60;;;;;;6345582;28;20088;-74
2021/08/19 11:34:06;;;;;;;5.32;2.83;;;31.60;36.40;;;;;;6326941;28;20392;-74
2021/08/19 11:37:07;;;;;;;5.32;2.83;;;31.70;36.20;;;;;;6320118;28;20034;-74
2021/08/19 11:40:09;;;;;;;7.00;2.40;;;31.80;35.90;;;;;;6321156;28;20032;-74
2021/08/19 11:43:32;;;;;;;7.60;2.85;;;31.80;35.80;;;;;;6320938;28;20039;-74
2021/08/19 11:46:33;;;;;;;9.48;2.95;;;31.80;36.00;;;;;;6321147;28;20036;-74
2021/08/19 11:49:34;;;;;;;7.13;2.60;;;31.90;35.90;;;;;;6319621;28;20036;-74
2021/08/19 11:52:35;;;;;;;4.30;2.47;;;32.00;35.60;;;;;;6319871;28;20118;-74
2021/08/19 11:55:37;;;;;;;5.22;3.42;;;32.30;35.40;;;;;;6325942;28;20043;-74
2021/08/19 11:58:38;;;;;;;5.30;3.03;;;32.40;34.80;;;;;;6319163;28;20062;-74
2021/08/19 12:01:48;;;;;;;4.28;2.75;;;32.50;34.60;;;;;;6319133;28;20364;-74
2021/08/19 12:05:07;;;;;;;3.97;2.92;;;32.60;34.60;;;;;;6345226;27;20039;-74
2021/08/19 12:08:08;;;;;;;3.75;2.75;;;32.80;34.20;;;;;;6342656;27;20426;-74
2021/08/19 12:11:09;;;;;;;4.97;3.13;;;33.00;33.80;;;;;;6326302;27;20373;-74
2021/08/19 12:14:13;;;;;;;4.18;2.80;;;33.10;33.60;;;;;;6343097;27;20034;-74
2021/08/19 12:17:14;;;;;;;4.35;3.20;;;33.10;33.50;;;;;;6342244;27;20039;-74
2021/08/19 12:20:18;;;;;;;5.47;2.88;;;33.10;33.20;;;;;;6342207;27;20460;-74
2021/08/19 12:23:20;;;;;;;4.60;3.03;;;33.20;33.00;;;;;;6326939;27;20031;-74
2021/08/19 12:26:23;;;;;;;5.40;3.47;;;33.30;32.50;;;;;;6343988;27;20043;-74
2021/08/19 12:29:24;;;;;;;4.90;3.10;;;33.50;32.10;;;;;;6327180;27;20089;-74
2021/08/19 12:32:36;;;;;;;6.13;2.72;;;33.40;31.70;;;;;;6325093;27;20059;-74
2021/08/19 12:35:38;;;;;;;5.60;3.28;;;33.40;31.80;;;;;;6326940;27;20028;-74
2021/08/19 12:38:40;;;;;;;5.55;3.20;;;33.90;31.30;;;;;;6343670;27;20099;-74
2021/08/19 12:41:41;;;;;;;6.20;3.20;;;34.40;30.40;;;;;;6344311;27;20040;-74
2021/08/19 12:45:04;;;;;;;5.80;3.50;;;34.40;30.10;;;;;;6326636;27;20051;-74
2021/08/19 12:48:08;;;;;;;6.55;3.40;;;34.10;30.50;;;;;;6338366;27;20341;-74
2021/08/19 12:51:26;;;;;;;7.43;3.60;;;34.40;30.00;;;;;;6326218;27;20032;-74
2021/08/19 12:54:27;;;;;;;5.03;3.33;;;34.50;29.80;;;;;;6343431;27;20096;-73
2021/08/19 12:57:50;;;;;;;5.93;3.25;;;34.90;29.50;;;;;;6341631;27;20147;-75
2021/08/19 13:00:51;;;;;;;4.18;3.25;;;35.40;29.00;;;;;;6340481;27;20404;-74
2021/08/19 13:03:53;;;;;;;7.38;3.10;;;36.00;28.40;;;;;;6331087;27;20442;-74
2021/08/19 13:06:54;;;;;;;5.40;2.63;;;36.30;27.80;;;;;;6341967;27;20475;-75
2021/08/19 13:09:56;;;;;;;5.03;3.13;;;36.50;27.60;;;;;;6345506;27;20449;-74
2021/08/19 13:12:57;;;;;;;10.93;3.20;;;36.50;27.40;;;;;;6342295;28;20085;-75
2021/08/19 13:15:58;;;;;;;17.08;2.97;;;36.90;27.20;;;;;;6343683;28;20039;-75
2021/08/19 13:18:59;;;;;;;5.57;2.90;;;37.40;26.90;;;;;;6343573;28;20036;-75
2021/08/19 13:22:01;;;;;;;7.43;3.05;;;38.00;26.70;;;;;;6340944;28;20039;-75
2021/08/19 13:25:03;;;;;;;4.65;2.90;;;38.60;25.90;;;;;;6339677;28;20146;-75
2021/08/19 13:28:05;;;;;;;4.03;2.45;;;38.80;25.40;;;;;;6340978;28;20044;-74
2021/08/19 13:31:06;;;;;;;6.00;2.70;;;38.90;25.20;;;;;;6338612;28;20471;-75
2021/08/19 13:34:08;;;;;;;4.97;2.88;;;39.20;24.80;;;;;;6324328;27;20102;-74
2021/08/19 13:37:10;;;;;;;2.85;2.35;;;39.20;24.70;;;;;;6299900;27;20024;-74
2021/08/19 13:40:11;;;;;;;5.55;2.60;;;39.40;24.60;;;;;;6323929;27;20429;-74
2021/08/19 13:43:12;;;;;;;6.03;2.53;;;39.60;24.20;;;;;;6322789;27;20095;-75
2021/08/19 13:46:13;;;;;;;8.65;3.67;;;39.70;24.20;;;;;;6322799;27;20077;-74
2021/08/19 13:49:15;;;;;;;3.92;2.80;;;39.90;23.80;;;;;;6304525;27;20040;-74
2021/08/19 13:52:16;;;;;;;3.95;2.97;;;39.90;23.60;;;;;;6323725;27;20039;-74
2021/08/19 13:55:17;;;;;;;3.50;2.58;;;39.90;23.60;;;;;;6323785;27;20036;-74
2021/08/19 13:58:18;;;;;;;4.82;2.58;;;39.90;23.70;;;;;;6321911;27;20115;-74
2021/08/19 14:01:19;;;;;;;6.70;2.72;;;40.00;23.30;;;;;;6323970;27;20040;-74
2021/08/19 14:04:21;;;;;;;5.45;2.58;;;39.90;23.50;;;;;;6324049;27;20056;-74
2021/08/19 14:07:22;;;;;;;3.38;2.33;;;39.90;23.50;;;;;;6322056;27;20039;-74
2021/08/19 14:10:23;;;;;;;4.05;2.50;;;40.20;23.40;;;;;;6355976;27;20046;-74
2021/08/19 14:13:24;;;;;;;4.68;2.95;;;40.40;23.00;;;;;;6322549;27;20036;-74
2021/08/19 14:16:26;;;;;;;2.85;2.10;;;40.30;22.80;;;;;;6324065;27;20050;-74
2021/08/19 14:19:27;;;;;;;3.83;2.25;;;40.10;22.80;;;;;;6334658;27;20032;-74
2021/08/19 14:22:32;;;;;;;3.42;2.28;;;39.90;23.00;;;;;;6339165;27;20039;-75
2021/08/19 14:25:33;;;;;;;3.22;2.13;;;39.70;23.10;;;;;;6330141;27;20036;-74
2021/08/19 14:28:35;;;;;;;3.83;2.53;;;39.20;23.30;;;;;;6324706;27;20465;-74
2021/08/19 14:31:36;;;;;;;4.45;2.47;;;38.10;24.30;;;;;;6322725;27;20111;-75
2021/08/19 14:34:37;;;;;;;6.60;2.60;;;37.10;25.40;;;;;;6345229;27;20111;-74
2021/08/19 14:37:39;;;;;;;3.88;2.55;;;36.00;26.50;;;;;;6347233;27;20028;-74
2021/08/19 14:40:40;;;;;;;4.63;2.42;;;35.00;27.60;;;;;;6348211;27;20395;-73
2021/08/19 14:43:41;;;;;;;6.65;2.45;;;34.10;28.60;;;;;;6347150;27;20443;-73
2021/08/19 14:46:44;;;;;;;10.18;2.97;;;33.30;29.50;;;;;;6346968;27;20023;-73
2021/08/19 14:49:46;;;;;;;3.80;2.50;;;32.60;30.30;;;;;;6319183;27;20039;-73
2021/08/19 14:52:47;;;;;;;3.22;2.35;;;31.90;31.20;;;;;;6346445;27;20053;-73
2021/08/19 14:55:48;;;;;;;7.05;2.65;;;31.40;32.30;;;;;;6330045;27;20028;-73
2021/08/19 14:58:49;;;;;;;2.85;2.13;;;30.90;33.30;;;;;;6329374;27;20160;-73
2021/08/19 15:01:50;;;;;;;5.18;2.60;;;30.60;33.90;;;;;;6347742;27;20036;-74
2021/08/19 15:04:51;;;;;;;4.28;2.00;;;30.30;34.30;;;;;;6348462;27;20451;-74
2021/08/19 15:07:52;;;;;;;2.53;1.98;;;30.00;34.80;;;;;;6347909;27;20058;-74
2021/08/19 15:10:56;;;;;;;4.82;2.33;;;29.80;35.40;;;;;;6339158;27;20043;-74
2021/08/19 15:13:57;;;;;;;3.10;2.08;;;29.60;36.00;;;;;;6345914;27;20054;-74
2021/08/19 15:16:58;;;;;;;3.58;2.40;;;29.40;36.30;;;;;;6361371;27;20039;-74
2021/08/19 15:20:00;;;;;;;3.50;2.25;;;29.30;36.50;;;;;;6371211;27;20054;-74
2021/08/19 15:23:01;;;;;;;4.47;2.35;;;29.20;36.60;;;;;;6371501;27;20474;-74
2021/08/19 15:26:07;;;;;;;4.35;2.10;;;29.20;36.80;;;;;;6373891;27;20038;-74
2021/08/19 15:29:08;;;;;;;5.32;1.77;;;29.10;36.80;;;;;;6371978;27;20073;-74
2021/08/19 15:32:14;;;;;;;3.80;2.40;;;29.00;37.00;;;;;;6367579;27;20036;-74
2021/08/19 15:35:16;;;;;;;3.60;2.20;;;29.00;37.10;;;;;;6329491;27;20059;-74
2021/08/19 15:38:17;;;;;;;4.63;2.05;;;29.00;37.30;;;;;;6347862;27;20464;-74
2021/08/19 15:41:18;;;;;;;2.70;2.10;;;29.10;37.40;;;;;;6348233;27;20027;-74
2021/08/19 15:44:20;;;;;;;3.25;2.15;;;29.20;37.40;;;;;;6349400;27;20388;-74
2021/08/19 15:47:25;;;;;;;4.78;2.15;;;29.40;37.20;;;;;;6347364;27;20126;-75
2021/08/19 15:50:26;;;;;;;2.90;1.88;;;29.70;36.70;;;;;;6329213;27;20043;-75